| 1,786 | Catherine Bedford Matthew Bedford | 35-39 | 04:18 35-39 | |
| 1,786 | Daniel Chidgey Tegan Crismale | 30-34 | 04:18 30-34 | |
| 1,786 | Jade George Lynishar Hine | 16-24 | 04:18 16-24 | |
| 1,786 | Cherise Mitchell Ché Simms Stewart | 25-29 | 04:18 25-29 | |
| 1,786 | Earle Farrand Sarah Jones | 30-34 | 04:18 30-34 | |
| 1,786 | Helena Cheng Warner Leung | 35-39 | 04:18 35-39 | |
| 1,786 | Hunter Harley Salome Maxwell | 45-49 | 04:18 45-49 | |
| 1,786 | Dale Williamson Talia Williamson | 25-29 | 04:18 25-29 | |
| 1,786 | Annabel Reynolds Jesse Reynolds | 35-39 | 04:18 35-39 | |
| 1,786 | Linda Crowe Shannon Crowe | 40-44 | 04:18 40-44 | |
| 1,786 | Claire Staniul Konstantinos Petratos | 30-34 | 04:18 30-34 | |
| 1,786 | Louise Maher Tim Hegarty | 40-44 | 04:18 40-44 | |
| 1,786 | Adam Gazzola Eloise Harrison | 30-34 | 04:18 30-34 | |
| 1,786 | Cadence Stringer James Kistner | 25-29 | 04:18 25-29 | |
| 1,786 | Rebecca Hope Struan Hope | 35-39 | 04:18 35-39 | |
| 1,786 | JASON SCULLI Rachel Galea | 35-39 | 04:18 35-39 | |
| 1,786 | Chantelle Tran Nicolas Gan | 25-29 | 04:18 25-29 | |
| 1,786 | Sam Edwards Suz Kennedy | 40-44 | 04:18 40-44 | |
| 1,786 | Sarah Wright Stephen Wright | 55-59 | 04:18 55-59 | |
| 1,786 | Bodine Luscott Natasha Jones | 35-39 | 04:18 35-39 | |
| 1,786 | Cooper McPartland Kali Madden | 16-24 | 04:18 16-24 | |
| 1,786 | Ashlee Gillard Thomas Howe | 16-24 | 04:18 16-24 | |
| 1,786 | Claudia Hui Paul Jenner | 45-49 | 04:18 45-49 | |
| 1,786 | Neal Mason Sarah Atchison | 40-44 | 04:18 40-44 | |
| 1,786 | Razin Polara Sophie Buchanan | 25-29 | 04:18 25-29 | |
| 1,786 | Clara Russell Lachlan McEntyre | 30-34 | 04:18 30-34 | |
| 1,786 | Juri Schiwjack Wendy Lam | 35-39 | 04:18 35-39 | |
| 1,786 | Kelly Mcpherson Shayne Bagnall | 16-24 | 04:18 16-24 | |
| 1,786 | Claudia De Carli Lance O’Keefe | 35-39 | 04:18 35-39 | |
| 1,786 | Jeremy Punselie Laura Mcmillan | 30-34 | 04:18 30-34 | |
| 1,786 | Cameron Teisina Sol Molina Pucheta | 25-29 | 04:18 25-29 | |
| 1,786 | Brooke Murphy Mark Murphy | 30-34 | 04:18 30-34 | |
| 1,786 | Rachel Thompson Sean Thompson | 35-39 | 04:18 35-39 | |
| 1,786 | Erin Kavanagh Kye Stubbs | 25-29 | 04:18 25-29 | |
| 1,835 | Josh Roberts Lucy Sward | 25-29 | 04:19 25-29 | |
| 1,835 | Johnny Mardini Sophie Saad | 30-34 | 04:19 30-34 | |
| 1,835 | jack Elcombe Zoë elcombe | 16-24 | 04:19 16-24 | |
| 1,835 | Katie Castaings Solomona Sopoaga | 25-29 | 04:19 25-29 | |
| 1,835 | Lucy Anderson Ryan Colclough | 16-24 | 04:19 16-24 | |
| 1,835 | Adam Rudgley Ayla Roberts | 30-34 | 04:19 30-34 | |
| 1,835 | Ike Baker Lucy Cochrane | 16-24 | 04:19 16-24 | |
| 1,835 | Lillian Dramsdahl Svein Eivind Andersen | 60-64 | 04:19 60-64 | |
| 1,835 | Adrian Pensak Rachael Bassett | 45-49 | 04:19 45-49 | |
| 1,835 | Annabel Piper Nathan Blackford | 25-29 | 04:19 25-29 | |
| 1,835 | Nathan Robinson Siarra Fordham | 16-24 | 04:19 16-24 | |
| 1,835 | Chris Carroll Sophie Sauerman | 40-44 | 04:19 40-44 | |
| 1,835 | John Grey Katie Grey | 35-39 | 04:19 35-39 | |
| 1,835 | Charlotte Norton Richard Sammon | 35-39 | 04:19 35-39 | |
| 1,835 | Eddie Moujalli Lourance Haddad | 25-29 | 04:19 25-29 | |
| 1,835 | Owen Cole Piper Mcgrorey | 16-24 | 04:19 16-24 | |
| 1,835 | Craig Watson Trudi Watson | 40-44 | 04:19 40-44 | |
| 1,835 | Holly Bartel Scott Bartel | 35-39 | 04:19 35-39 | |
| 1,835 | Alistair Gormly Jennifer Chan | 30-34 | 04:19 30-34 | |
| 1,835 | Cooper Smith Georja Waddington | 16-24 | 04:19 16-24 | |
| 1,835 | Jada Pitovao Stephen Pitovao | 25-29 | 04:19 25-29 | |
| 1,835 | Ian Whitfield Janette Whitfield | 50-54 | 04:19 50-54 | |
| 1,835 | Mica Parmar Mohit Tugnait | 30-34 | 04:19 30-34 | |
| 1,835 | Jerrimme Allsopp Laura Allsopp | 30-34 | 04:19 30-34 | |
| 1,835 | James Richards Richelle Magenta | 35-39 | 04:19 35-39 | |
| 1,835 | Indhu Subramanian Sebin Oh | 35-39 | 04:19 35-39 | |
| 1,835 | Kayne Smith Talia Kelleher | 16-24 | 04:19 16-24 | |
| 1,835 | Laura Bryant Matt Bryant | 30-34 | 04:19 30-34 | |
| 1,835 | Joel Amoroso Melissa A Amoroso | 30-34 | 04:19 30-34 | |
| 1,835 | Keirra Lamb Terry Lamb | 40-44 | 04:19 40-44 | |
| 1,835 | Rachael Hughes Ryan Gallagher | 25-29 | 04:19 25-29 | |
| 1,835 | Rereana Edwards Samiuela Palaki | 25-29 | 04:19 25-29 | |
| 1,835 | Jo Parker Samuel Parker | 40-44 | 04:19 40-44 | |
| 1,835 | Alyssa Doeur Dang Ly | 25-29 | 04:19 25-29 | |
| 1,835 | James Freyne Marie O Gorman | 25-29 | 04:19 25-29 | |
| 1,835 | Emily Meginess Jake Phillips | 35-39 | 04:19 35-39 | |
| 1,835 | Cheuk Wing Jasmine Ho Chun Fung Ng | 25-29 | 04:19 25-29 | |
| 1,835 | Hannah Gerrard Liam O'Connor | 16-24 | 04:19 16-24 | |
| 1,835 | Ashley Lean Georgia Wigan | 25-29 | 04:19 25-29 | |
| 1,835 | Clara Andreu Nito Ozores | 30-34 | 04:19 30-34 | |
| 1,835 | David O Hanlon Eibhlis McDonald | 25-29 | 04:19 25-29 | |
| 1,835 | Riley Addison Vivienne Coram | 25-29 | 04:19 25-29 | |
| 1,835 | molly simmons riley watts | 16-24 | 04:19 16-24 | |
| 1,835 | Brooke Paras David Morris | 50-54 | 04:19 50-54 | |
| 1,835 | Ayron-Leigh Filander Dion Karagiannis | 25-29 | 04:19 25-29 | |
| 1,835 | Charlie Vinning Jo Magee | 25-29 | 04:19 25-29 | |
| 1,835 | Caitlin Christie Lleyton Pagett | 25-29 | 04:19 25-29 | |
| 1,835 | Kristen Venianakis Lachlan Hensley | 25-29 | 04:19 25-29 | |
| 1,835 | Emily Boehm Jonathan Steed | 35-39 | 04:19 35-39 | |
| 1,835 | Alex Breen Shauna Allen | 25-29 | 04:19 25-29 | |
| 1,835 | Ashleigh Mills George Psarris | 25-29 | 04:19 25-29 | |
| 1,835 | Megan Hinchley Peter Hinchley | 45-49 | 04:19 45-49 | |
| 1,835 | Amy Logan Luke Roper | 16-24 | 04:19 16-24 | |
| 1,835 | Ian Spears Rosa Putland | 40-44 | 04:19 40-44 | |
| 1,835 | Lachlan Dodd Pele Hala | 25-29 | 04:19 25-29 | |
| 1,835 | ariel hou benjamin mo | 25-29 | 04:19 25-29 | |
| 1,835 | Christian Moehle Elly Aardenburg | 30-34 | 04:19 30-34 | |
| 1,835 | Dean Wheeler Sarah Cullen | 40-44 | 04:19 40-44 | |
| 1,835 | Brad Warner Trish Mackie | 45-49 | 04:19 45-49 | |
| 1,835 | Erin Perry Gus Mckiver | 16-24 | 04:19 16-24 | |
| 1,835 | Nathan Reed Vadawn Buhler | 45-49 | 04:19 45-49 | |
| 1,835 | Stacey Britton Willie Harrington | 25-29 | 04:19 25-29 | |
| 1,835 | Shoaland Griffiths Sophie Busson | 16-24 | 04:19 16-24 | |
| 1,835 | George Psarris Lily Maguire | 16-24 | 04:19 16-24 | |
| 1,835 | Heng Yi Wong Yihong Wu | 25-29 | 04:19 25-29 | |
| 1,835 | Lee Thoroughgood Montana Parsons | 16-24 | 04:19 16-24 | |